Time;durP1;ratioP1;P1;durP2;ratioP2;P2;SDS_P1;SDS_P2;PMS_P1;PMS_P2;Temp;Humidity;BMP_temperature;BMP_pressure;BME280_temperature;BME280_humidity;BME280_pressure;Samples;Min_cycle;Max_cycle;Signal;HPM_P1;HPM_P2
2021/08/10 00:00:17;0.00;0.00;0.62;0.00;0.00;0.62;;;;;21.80;1.00;;;;;;2274447;61;1070;-85
2021/08/10 00:02:46;98397.00;0.33;170.80;0.00;0.00;0.62;;;;;22.10;1.00;;;;;;2274664;61;1920;-85
2021/08/10 00:05:12;0.00;0.00;0.62;0.00;0.00;0.62;;;;;22.20;1.00;;;;;;2274734;61;1140;-85
2021/08/10 00:07:39;106200.00;0.35;184.27;0.00;0.00;0.62;;;;;22.30;1.00;;;;;;2274489;61;1160;-86
2021/08/10 00:10:07;82954.00;0.28;144.14;0.00;0.00;0.62;;;;;22.10;1.00;;;;;;2274723;61;1156;-85
2021/08/10 00:12:34;99325.00;0.33;172.41;32392.00;0.11;56.72;;;;;21.80;1.00;;;;;;2274638;61;1313;-85
2021/08/10 00:15:03;52412.00;0.17;91.36;0.00;0.00;0.62;;;;;21.80;1.00;;;;;;2274205;61;1115;-85
2021/08/10 00:17:30;69980.00;0.23;121.73;0.00;0.00;0.62;;;;;21.90;1.00;;;;;;2273942;61;1125;-85
2021/08/10 00:19:58;18969.00;0.06;33.48;0.00;0.00;0.62;;;;;22.10;1.00;;;;;;2273981;61;1094;-85
2021/08/10 00:22:26;48628.00;0.16;84.81;0.00;0.00;0.62;;;;;22.20;1.00;;;;;;2273705;61;1927;-85
2021/08/10 00:24:53;0.00;0.00;0.62;0.00;0.00;0.62;;;;;22.30;1.00;;;;;;2273619;61;1148;-85
2021/08/10 00:27:20;0.00;0.00;0.62;0.00;0.00;0.62;;;;;22.40;1.00;;;;;;2274114;61;1174;-85
2021/08/10 00:29:46;36821.00;0.12;64.39;0.00;0.00;0.62;;;;;22.10;1.00;;;;;;2274145;61;1315;-85
2021/08/10 00:32:13;156066.00;0.52;270.26;8188.00;0.03;14.81;;;;;21.70;1.00;;;;;;2273386;61;1384;-85
2021/08/10 00:34:40;39436.00;0.13;68.91;0.00;0.00;0.62;;;;;21.50;1.00;;;;;;2273806;61;1300;-85
2021/08/10 00:37:09;75354.00;0.25;131.01;0.00;0.00;0.62;;;;;21.30;1.00;;;;;;2274241;61;1164;-85
2021/08/10 00:39:37;81465.00;0.27;141.57;0.00;0.00;0.62;;;;;21.20;1.00;;;;;;2273749;61;1069;-85
2021/08/10 00:42:05;0.00;0.00;0.62;0.00;0.00;0.62;;;;;21.30;1.00;;;;;;2274009;61;1909;-86
2021/08/10 00:44:32;39852.00;0.13;69.63;0.00;0.00;0.62;;;;;21.40;1.00;;;;;;2273432;61;1385;-85
2021/08/10 00:46:59;66432.00;0.22;115.59;0.00;0.00;0.62;;;;;21.10;1.00;;;;;;2273598;61;1121;-85
2021/08/10 00:49:26;0.00;0.00;0.62;0.00;0.00;0.62;;;;;21.40;1.00;;;;;;2274676;61;1177;-83
2021/08/10 00:51:53;0.00;0.00;0.62;0.00;0.00;0.62;;;;;21.60;1.00;;;;;;2276740;61;1129;-84
2021/08/10 00:54:22;52777.00;0.18;91.99;0.00;0.00;0.62;;;;;21.60;1.00;;;;;;2275521;61;1390;-85
2021/08/10 00:56:49;0.00;0.00;0.62;0.00;0.00;0.62;;;;;21.70;1.00;;;;;;2273159;61;1186;-85
2021/08/10 00:59:16;0.00;0.00;0.62;0.00;0.00;0.62;;;;;21.50;1.00;;;;;;2273731;61;1075;-85
2021/08/10 01:01:43;90683.00;0.30;157.49;0.00;0.00;0.62;;;;;21.50;1.00;;;;;;2273671;61;1298;-85
2021/08/10 01:04:10;0.00;0.00;0.62;0.00;0.00;0.62;;;;;21.30;1.00;;;;;;2274672;61;2013;-85
2021/08/10 01:06:51;0.00;0.00;0.62;0.00;0.00;0.62;;;;;21.60;1.00;;;;;;2274000;61;1080;-85
2021/08/10 01:09:28;0.00;0.00;0.62;0.00;0.00;0.62;;;;;21.30;1.00;;;;;;2273828;61;1179;-85
2021/08/10 01:12:02;0.00;0.00;0.62;0.00;0.00;0.62;;;;;21.20;1.00;;;;;;2273958;61;1196;-85
2021/08/10 01:14:36;25797.00;0.09;45.31;0.00;0.00;0.62;;;;;21.10;1.00;;;;;;2273660;61;1541;-85
2021/08/10 01:17:08;111903.00;0.37;194.11;0.00;0.00;0.62;;;;;21.00;1.00;;;;;;2273778;61;1166;-85
2021/08/10 01:19:57;0.00;0.00;0.62;0.00;0.00;0.62;;;;;20.70;1.00;;;;;;2273848;61;1192;-85
2021/08/10 01:22:29;14177.00;0.05;25.19;0.00;0.00;0.62;;;;;20.50;1.00;;;;;;2273866;61;1922;-86
2021/08/10 01:25:08;73586.00;0.25;127.96;0.00;0.00;0.62;;;;;20.50;1.00;;;;;;2273423;61;1141;-85
2021/08/10 01:27:52;0.00;0.00;0.62;0.00;0.00;0.62;;;;;20.30;1.00;;;;;;2273573;61;1138;-85
2021/08/10 01:30:23;58378.00;0.19;101.67;0.00;0.00;0.62;;;;;20.20;1.00;;;;;;2274317;61;1179;-86
2021/08/10 01:32:52;278230.00;0.93;480.49;23918.00;0.08;42.05;;;;;20.30;1.00;;;;;;2273503;61;1463;-85
2021/08/10 01:35:21;336470.00;1.12;580.61;42672.00;0.14;74.51;;;;;20.20;1.00;;;;;;2273805;61;1113;-85
2021/08/10 01:37:53;88630.00;0.30;153.94;0.00;0.00;0.62;;;;;20.10;1.00;;;;;;2273665;61;1135;-85
2021/08/10 01:40:21;52582.00;0.18;91.65;0.00;0.00;0.62;;;;;20.10;1.00;;;;;;2273863;61;1113;-85
2021/08/10 01:42:49;38479.00;0.13;67.26;0.00;0.00;0.62;;;;;20.40;1.00;;;;;;2273532;61;1915;-85
2021/08/10 01:45:17;4871.00;0.02;9.06;0.00;0.00;0.62;;;;;20.50;1.00;;;;;;2273353;61;1221;-85
2021/08/10 01:47:47;135268.00;0.45;234.41;0.00;0.00;0.62;;;;;20.60;1.00;;;;;;2273891;61;1196;-85
2021/08/10 01:50:16;143980.00;0.48;249.43;31063.00;0.10;54.42;;;;;20.90;1.00;;;;;;2273790;61;1098;-86
2021/08/10 01:52:44;77432.00;0.26;134.60;0.00;0.00;0.62;;;;;20.90;1.00;;;;;;2273796;61;1289;-85
2021/08/10 01:55:12;70074.00;0.23;121.89;0.00;0.00;0.62;;;;;20.70;1.00;;;;;;2273204;61;1140;-85
2021/08/10 01:57:41;106823.00;0.36;185.35;0.00;0.00;0.62;;;;;20.20;1.00;;;;;;2273200;61;1157;-85
2021/08/10 02:00:09;43807.00;0.15;76.47;0.00;0.00;0.62;;;;;19.90;1.00;;;;;;2273421;61;1105;-85
2021/08/10 02:02:36;0.00;0.00;0.62;0.00;0.00;0.62;;;;;19.60;1.00;;;;;;2272715;61;1935;-85
2021/08/10 02:05:04;23811.00;0.08;41.87;0.00;0.00;0.62;;;;;19.40;1.00;;;;;;2272543;61;1282;-86
2021/08/10 02:07:32;24395.00;0.08;42.88;0.00;0.00;0.62;;;;;19.40;1.00;;;;;;2272338;61;1080;-85
2021/08/10 02:10:01;300352.00;1.00;518.53;62340.00;0.21;108.52;;;;;19.20;1.00;;;;;;2273074;61;1141;-85
2021/08/10 02:12:28;133927.00;0.45;232.10;0.00;0.00;0.62;;;;;19.10;1.00;;;;;;2273390;61;1362;-85
2021/08/10 02:14:57;136893.00;0.46;237.21;0.00;0.00;0.62;;;;;19.10;1.00;;;;;;2273138;61;1143;-85
2021/08/10 02:17:25;72400.00;0.24;125.91;0.00;0.00;0.62;;;;;19.30;1.00;;;;;;2273185;61;1260;-85
2021/08/10 02:19:52;148073.00;0.49;256.49;0.00;0.00;0.62;;;;;19.70;1.00;;;;;;2273185;61;1152;-85
2021/08/10 02:22:19;153169.00;0.51;265.27;0.00;0.00;0.62;;;;;19.90;1.00;;;;;;2272764;61;2014;-85
2021/08/10 02:24:53;162566.00;0.54;281.46;0.00;0.00;0.62;;;;;20.00;1.00;;;;;;2268514;61;1302;-85
2021/08/10 02:27:24;99571.00;0.33;172.83;0.00;0.00;0.62;;;;;20.20;1.00;;;;;;2272979;61;1125;-85
2021/08/10 02:29:53;0.00;0.00;0.62;0.00;0.00;0.62;;;;;20.20;1.00;;;;;;2273522;61;1139;-86
2021/08/10 02:32:23;48671.00;0.16;84.89;0.00;0.00;0.62;;;;;20.20;1.00;;;;;;2273338;61;1264;-85
2021/08/10 02:34:51;63162.00;0.21;109.94;0.00;0.00;0.62;;;;;20.30;1.00;;;;;;2273371;61;1105;-85
2021/08/10 02:37:19;115943.00;0.39;201.08;0.00;0.00;0.62;;;;;20.20;1.00;;;;;;2273453;61;1195;-85
2021/08/10 02:39:50;266884.00;0.89;460.99;0.00;0.00;0.62;;;;;19.90;1.00;;;;;;2273208;61;1180;-85
2021/08/10 02:42:19;247019.00;0.82;426.82;27820.00;0.09;48.81;;;;;19.80;1.00;;;;;;2273179;61;1474;-85
2021/08/10 02:44:48;69152.00;0.23;120.30;0.00;0.00;0.62;;;;;19.70;1.00;;;;;;2273705;61;2021;-85
2021/08/10 02:47:15;76155.00;0.25;132.40;0.00;0.00;0.62;;;;;20.30;1.00;;;;;;2273051;61;1228;-85
2021/08/10 02:49:42;32333.00;0.11;56.62;0.00;0.00;0.62;;;;;20.10;1.00;;;;;;2273406;61;1098;-85
2021/08/10 02:52:09;117248.00;0.39;203.34;0.00;0.00;0.62;;;;;20.20;1.00;;;;;;2272877;61;1106;-85
2021/08/10 02:54:38;99550.00;0.33;172.80;0.00;0.00;0.62;;;;;20.50;1.00;;;;;;2273243;61;1258;-85
2021/08/10 02:57:15;123167.00;0.41;213.55;0.00;0.00;0.62;;;;;20.80;1.00;;;;;;2272970;61;1058;-86
2021/08/10 02:59:48;0.00;0.00;0.62;0.00;0.00;0.62;;;;;21.10;1.00;;;;;;2273180;61;1104;-85
2021/08/10 03:02:18;119902.00;0.40;207.91;0.00;0.00;0.62;;;;;20.90;1.00;;;;;;2273411;61;1463;-85
2021/08/10 03:04:50;21398.00;0.07;37.69;0.00;0.00;0.62;;;;;21.10;1.00;;;;;;2273241;61;1932;-85
2021/08/10 03:07:17;35620.00;0.12;62.31;0.00;0.00;0.62;;;;;20.60;1.00;;;;;;2272921;61;1305;-85
2021/08/10 03:09:48;136129.00;0.45;235.90;0.00;0.00;0.62;;;;;20.10;1.00;;;;;;2272960;61;1256;-85
2021/08/10 03:12:19;209812.00;0.70;362.81;5680.00;0.02;10.46;;;;;20.20;1.00;;;;;;2272931;61;1522;-85
2021/08/10 03:14:51;82593.00;0.28;143.52;9455.00;0.03;17.00;;;;;20.30;1.00;;;;;;2272923;61;1168;-86
2021/08/10 03:17:20;0.00;0.00;0.62;0.00;0.00;0.62;;;;;20.30;1.00;;;;;;2272730;61;1122;-86
2021/08/10 03:19:48;46949.00;0.16;81.91;0.00;0.00;0.62;;;;;20.10;1.00;;;;;;2272763;61;1111;-85
2021/08/10 03:22:17;0.00;0.00;0.62;0.00;0.00;0.62;;;;;19.90;1.00;;;;;;2272828;61;1391;-83
2021/08/10 03:24:48;59412.00;0.20;103.46;0.00;0.00;0.62;;;;;19.30;1.00;;;;;;2272981;61;1930;-84
2021/08/10 03:27:17;45687.00;0.15;79.73;0.00;0.00;0.62;;;;;19.00;1.00;;;;;;2273118;61;1160;-84
2021/08/10 03:29:46;0.00;0.00;0.62;0.00;0.00;0.62;;;;;19.00;1.00;;;;;;2272976;61;1114;-84
2021/08/10 03:32:15;159853.00;0.53;276.79;5384.00;0.02;9.95;;;;;19.00;1.00;;;;;;2273387;61;1094;-84
2021/08/10 03:34:44;3100.00;0.01;5.99;0.00;0.00;0.62;;;;;19.30;1.00;;;;;;2272758;61;1144;-84
2021/08/10 03:37:11;0.00;0.00;0.62;0.00;0.00;0.62;;;;;19.70;1.00;;;;;;2272816;61;1080;-84
2021/08/10 03:39:40;179588.00;0.60;310.78;42324.00;0.14;73.91;;;;;19.90;1.00;;;;;;2272609;61;1163;-85
2021/08/10 03:42:08;33681.00;0.11;58.95;0.00;0.00;0.62;;;;;20.20;1.00;;;;;;2272118;61;1173;-85
2021/08/10 03:44:42;102862.00;0.34;178.51;36039.00;0.12;63.03;;;;;20.10;1.00;;;;;;2271811;61;2018;-86
2021/08/10 03:47:10;148520.00;0.50;257.26;19110.00;0.06;33.73;;;;;20.00;1.00;;;;;;2276825;61;1150;-84
2021/08/10 03:49:37;56754.00;0.19;98.87;0.00;0.00;0.62;;;;;20.20;1.00;;;;;;2276900;61;1191;-84
2021/08/10 03:52:05;0.00;0.00;0.62;0.00;0.00;0.62;;;;;20.20;1.00;;;;;;2272241;61;1168;-86
2021/08/10 03:54:32;83613.00;0.28;145.28;8925.00;0.03;16.09;;;;;20.20;1.00;;;;;;2272036;61;1371;-85
2021/08/10 03:57:00;0.00;0.00;0.62;0.00;0.00;0.62;;;;;19.50;1.00;;;;;;2274721;61;1177;-84
2021/08/10 03:59:29;44181.00;0.15;77.12;0.00;0.00;0.62;;;;;19.10;1.00;;;;;;2275767;61;1140;-84
2021/08/10 04:01:58;0.00;0.00;0.62;0.00;0.00;0.62;;;;;19.00;1.00;;;;;;2275128;61;1105;-86
2021/08/10 04:04:26;8383.00;0.03;15.15;0.00;0.00;0.62;;;;;18.90;1.00;;;;;;2272709;61;1943;-85
2021/08/10 04:06:53;0.00;0.00;0.62;0.00;0.00;0.62;;;;;18.90;1.00;;;;;;2272572;61;1101;-85
2021/08/10 04:09:21;198393.00;0.66;343.16;16706.00;0.06;29.57;;;;;18.80;1.00;;;;;;2271848;61;1139;-85
2021/08/10 04:11:49;75503.00;0.25;131.27;0.00;0.00;0.62;;;;;18.50;1.00;;;;;;2271755;61;1155;-85
2021/08/10 04:14:17;93204.00;0.31;161.84;0.00;0.00;0.62;;;;;18.40;1.00;;;;;;2271131;61;1409;-85
2021/08/10 04:16:49;0.00;0.00;0.62;0.00;0.00;0.62;;;;;18.70;1.00;;;;;;2271842;61;1077;-85
2021/08/10 04:19:20;59821.00;0.20;104.17;0.00;0.00;0.62;;;;;19.00;1.00;;;;;;2271213;61;1118;-84
2021/08/10 04:21:47;9740.00;0.03;17.50;0.00;0.00;0.62;;;;;18.80;1.00;;;;;;2271584;61;1168;-84
2021/08/10 04:24:14;62169.00;0.21;108.23;0.00;0.00;0.62;;;;;18.70;1.00;;;;;;2271489;61;1923;-85
2021/08/10 04:26:41;0.00;0.00;0.62;0.00;0.00;0.62;;;;;18.70;1.00;;;;;;2270773;61;1177;-84
2021/08/10 04:29:08;0.00;0.00;0.62;0.00;0.00;0.62;;;;;18.90;1.00;;;;;;2270718;61;1140;-84
2021/08/10 04:31:35;8346.00;0.03;15.08;0.00;0.00;0.62;;;;;19.20;1.00;;;;;;2270650;61;1129;-84
2021/08/10 04:34:02;54099.00;0.18;94.27;0.00;0.00;0.62;;;;;19.50;1.00;;;;;;2270922;61;1482;-84
2021/08/10 04:36:30;0.00;0.00;0.62;0.00;0.00;0.62;;;;;19.50;1.00;;;;;;2271651;61;1203;-84
2021/08/10 04:38:57;0.00;0.00;0.62;0.00;0.00;0.62;;;;;19.90;1.00;;;;;;2271270;61;1109;-84
2021/08/10 04:41:24;273781.00;0.91;472.84;42502.00;0.14;74.22;;;;;19.80;1.00;;;;;;2271313;61;1160;-84
2021/08/10 04:43:52;313338.00;1.04;540.85;86777.00;0.29;150.74;;;;;19.70;1.00;;;;;;2271176;61;1915;-84
2021/08/10 04:46:19;0.00;0.00;0.62;0.00;0.00;0.62;;;;;19.80;1.00;;;;;;2270645;61;1467;-84
2021/08/10 04:48:46;0.00;0.00;0.62;0.00;0.00;0.62;;;;;19.50;1.00;;;;;;2270723;61;1154;-85
2021/08/10 04:51:13;0.00;0.00;0.62;0.00;0.00;0.62;;;;;19.70;1.00;;;;;;2270985;61;1169;-85
2021/08/10 04:53:41;0.00;0.00;0.62;0.00;0.00;0.62;;;;;20.00;1.00;;;;;;2271427;61;1292;-84
2021/08/10 04:56:09;13449.00;0.04;23.92;0.00;0.00;0.62;;;;;20.00;1.00;;;;;;2270663;61;1150;-84
2021/08/10 04:58:36;27890.00;0.09;48.93;0.00;0.00;0.62;;;;;20.10;1.00;;;;;;2270681;61;1117;-84
2021/08/10 05:01:03;0.00;0.00;0.62;0.00;0.00;0.62;;;;;19.90;1.00;;;;;;2270640;61;1117;-84
2021/08/10 05:03:30;113210.00;0.38;196.37;38743.00;0.13;67.71;;;;;19.70;1.00;;;;;;2270402;61;2020;-85
2021/08/10 05:05:58;0.00;0.00;0.62;0.00;0.00;0.62;;;;;19.70;1.00;;;;;;2270553;61;1084;-85
2021/08/10 05:08:25;178874.00;0.60;309.55;27412.00;0.09;48.10;;;;;19.90;1.00;;;;;;2270847;61;1192;-84
2021/08/10 05:10:54;39421.00;0.13;68.89;0.00;0.00;0.62;;;;;20.20;1.00;;;;;;2270541;61;1149;-85
2021/08/10 05:13:21;0.00;0.00;0.62;0.00;0.00;0.62;;;;;20.10;1.00;;;;;;2270493;61;1272;-84
2021/08/10 05:15:48;128919.00;0.43;223.47;50920.00;0.17;88.78;;;;;20.00;1.00;;;;;;2270272;61;1200;-84
2021/08/10 05:18:15;27755.00;0.09;48.70;0.00;0.00;0.62;;;;;19.80;1.00;;;;;;2270464;61;1090;-85
2021/08/10 05:20:42;29991.00;0.10;52.57;0.00;0.00;0.62;;;;;19.90;1.00;;;;;;2270760;61;1251;-84
2021/08/10 05:23:09;60964.00;0.20;106.14;0.00;0.00;0.62;;;;;19.80;1.00;;;;;;2271130;61;1445;-84
2021/08/10 05:25:36;0.00;0.00;0.62;0.00;0.00;0.62;;;;;19.70;1.00;;;;;;2270814;61;2034;-84
2021/08/10 05:28:04;4538.00;0.02;8.49;0.00;0.00;0.62;;;;;19.40;1.00;;;;;;2271101;61;1161;-85
2021/08/10 05:30:31;0.00;0.00;0.62;0.00;0.00;0.62;;;;;19.20;1.00;;;;;;2270891;61;1206;-84
2021/08/10 05:32:58;145813.00;0.49;252.59;0.00;0.00;0.62;;;;;19.40;1.00;;;;;;2271022;61;1372;-84
2021/08/10 05:35:25;93328.00;0.31;162.05;0.00;0.00;0.62;;;;;19.60;1.00;;;;;;2271279;61;1117;-85
2021/08/10 05:37:52;225092.00;0.75;389.10;7819.00;0.03;14.17;;;;;19.70;1.00;;;;;;2270956;61;1144;-84
2021/08/10 05:40:20;179235.00;0.60;310.17;442.00;0.00;1.39;;;;;19.40;1.00;;;;;;2270538;61;1137;-84
2021/08/10 05:42:47;91750.00;0.31;159.33;0.00;0.00;0.62;;;;;19.60;1.00;;;;;;2270841;61;1468;-85
2021/08/10 05:45:15;201548.00;0.67;348.59;0.00;0.00;0.62;;;;;19.80;1.00;;;;;;2270969;61;2022;-85
2021/08/10 05:47:42;161626.00;0.54;279.84;0.00;0.00;0.62;;;;;20.00;1.00;;;;;;2271742;61;1176;-84
2021/08/10 05:50:10;0.00;0.00;0.62;0.00;0.00;0.62;;;;;20.10;1.00;;;;;;2271603;61;1223;-85
2021/08/10 05:52:37;0.00;0.00;0.62;0.00;0.00;0.62;;;;;20.00;1.00;;;;;;2274423;61;1303;-85
2021/08/10 05:55:04;0.00;0.00;0.62;0.00;0.00;0.62;;;;;19.90;1.00;;;;;;2273809;61;1084;-84
2021/08/10 05:57:30;49829.00;0.17;86.89;0.00;0.00;0.62;;;;;19.40;1.00;;;;;;2271557;61;1170;-84
2021/08/10 05:59:57;54335.00;0.18;94.68;0.00;0.00;0.62;;;;;19.10;1.00;;;;;;2270987;61;1104;-85
2021/08/10 06:02:26;0.00;0.00;0.62;0.00;0.00;0.62;;;;;19.10;1.00;;;;;;2270426;61;1281;-84
2021/08/10 06:04:53;14463.00;0.05;25.68;0.00;0.00;0.62;;;;;19.20;1.00;;;;;;2270576;61;2022;-85
2021/08/10 06:07:20;28053.00;0.09;49.21;0.00;0.00;0.62;;;;;19.20;1.00;;;;;;2270919;61;1138;-84
2021/08/10 06:09:47;0.00;0.00;0.62;0.00;0.00;0.62;;;;;19.20;1.00;;;;;;2274764;61;1169;-85
2021/08/10 06:12:13;0.00;0.00;0.62;0.00;0.00;0.62;;;;;19.00;1.00;;;;;;2275126;61;1103;-83
2021/08/10 06:14:40;81052.00;0.27;140.85;0.00;0.00;0.62;;;;;18.90;1.00;;;;;;2274773;61;1402;-83
2021/08/10 06:17:07;77897.00;0.26;135.40;0.00;0.00;0.62;;;;;18.80;1.70;;;;;;2277281;61;1152;-84
2021/08/10 06:19:35;0.00;0.00;0.62;0.00;0.00;0.62;;;;;18.70;1.40;;;;;;2274977;61;1309;-83
2021/08/10 06:22:02;0.00;0.00;0.62;0.00;0.00;0.62;;;;;18.70;1.40;;;;;;2275176;61;1125;-83
2021/08/10 06:24:31;88194.00;0.29;153.19;0.00;0.00;0.62;;;;;18.80;1.70;;;;;;2275575;61;2010;-83
2021/08/10 06:26:57;76048.00;0.25;132.21;0.00;0.00;0.62;;;;;19.00;2.40;;;;;;2276230;61;1115;-84
2021/08/10 06:29:24;92220.00;0.31;160.14;0.00;0.00;0.62;;;;;19.60;1.00;;;;;;2276395;61;1125;-84
2021/08/10 06:31:51;0.00;0.00;0.62;0.00;0.00;0.62;;;;;20.20;1.00;;;;;;2276367;61;1073;-86
2021/08/10 06:34:18;0.00;0.00;0.62;0.00;0.00;0.62;;;;;20.70;1.00;;;;;;2276819;61;1294;-84
2021/08/10 06:36:46;0.00;0.00;0.62;0.00;0.00;0.62;;;;;20.90;1.00;;;;;;2276414;61;1239;-85
2021/08/10 06:39:13;0.00;0.00;0.62;0.00;0.00;0.62;;;;;21.00;1.00;;;;;;2276818;61;1158;-86
2021/08/10 06:41:40;13532.00;0.05;24.07;0.00;0.00;0.62;;;;;21.20;1.00;;;;;;2277256;61;1162;-86
2021/08/10 06:44:07;46788.00;0.16;81.63;0.00;0.00;0.62;;;;;21.40;1.00;;;;;;2280351;61;2004;-84
2021/08/10 06:46:34;0.00;0.00;0.62;0.00;0.00;0.62;;;;;21.60;1.00;;;;;;2279404;61;1120;-85
2021/08/10 06:49:01;14694.00;0.05;26.08;0.00;0.00;0.62;;;;;22.00;1.00;;;;;;2276454;61;1149;-85
2021/08/10 06:51:28;0.00;0.00;0.62;0.00;0.00;0.62;;;;;22.50;1.00;;;;;;2275899;61;1089;-85
2021/08/10 06:53:56;44229.00;0.15;77.20;0.00;0.00;0.62;;;;;23.00;1.00;;;;;;2275676;61;1364;-85
2021/08/10 06:56:23;0.00;0.00;0.62;0.00;0.00;0.62;;;;;23.20;1.00;;;;;;2275979;61;1176;-85
2021/08/10 06:58:50;156235.00;0.52;270.55;0.00;0.00;0.62;;;;;23.30;1.00;;;;;;2276250;61;1154;-85
2021/08/10 07:01:17;0.00;0.00;0.62;0.00;0.00;0.62;;;;;23.50;1.00;;;;;;2275780;61;1058;-85
2021/08/10 07:03:44;0.00;0.00;0.62;0.00;0.00;0.62;;;;;23.50;1.00;;;;;;2275876;61;1343;-85
2021/08/10 07:06:11;23226.00;0.08;40.86;0.00;0.00;0.62;;;;;23.30;1.00;;;;;;2275867;61;1939;-85
2021/08/10 07:08:38;0.00;0.00;0.62;0.00;0.00;0.62;;;;;23.50;1.00;;;;;;2275324;61;1116;-85
2021/08/10 07:11:07;0.00;0.00;0.62;0.00;0.00;0.62;;;;;23.80;1.00;;;;;;2277126;61;1107;-85
2021/08/10 07:13:33;22185.00;0.07;39.05;0.00;0.00;0.62;;;;;24.00;1.00;;;;;;2277417;61;1391;-84
2021/08/10 07:16:00;0.00;0.00;0.62;0.00;0.00;0.62;;;;;23.90;1.00;;;;;;2276634;61;1102;-84
2021/08/10 07:18:27;118896.00;0.40;206.18;0.00;0.00;0.62;;;;;24.00;1.00;;;;;;2276236;61;1210;-84
2021/08/10 07:20:54;0.00;0.00;0.62;0.00;0.00;0.62;;;;;24.30;1.00;;;;;;2268966;61;1182;-84
2021/08/10 07:23:21;0.00;0.00;0.62;0.00;0.00;0.62;;;;;24.80;1.00;;;;;;2276290;61;1285;-84
2021/08/10 07:25:48;20701.00;0.07;36.48;0.00;0.00;0.62;;;;;24.70;1.00;;;;;;2276441;61;2000;-84
2021/08/10 07:28:16;11910.00;0.04;21.26;0.00;0.00;0.62;;;;;24.70;1.00;;;;;;2272555;61;1199;-84
2021/08/10 07:30:43;0.00;0.00;0.62;0.00;0.00;0.62;;;;;24.60;1.00;;;;;;2271360;61;1165;-84
2021/08/10 07:33:10;80871.00;0.27;140.54;11149.00;0.04;19.94;;;;;24.50;1.00;;;;;;2271167;61;1384;-84
2021/08/10 07:35:37;50488.00;0.17;88.03;0.00;0.00;0.62;;;;;24.80;1.00;;;;;;2271719;61;1098;-84
2021/08/10 07:38:05;55606.00;0.19;96.88;0.00;0.00;0.62;;;;;24.90;1.00;;;;;;2272432;61;1062;-84
2021/08/10 07:40:32;0.00;0.00;0.62;0.00;0.00;0.62;;;;;24.70;1.00;;;;;;2271947;61;1151;-84
2021/08/10 07:42:59;146953.00;0.49;254.56;0.00;0.00;0.62;;;;;24.70;1.00;;;;;;2272456;61;1281;-84
2021/08/10 07:45:28;519.00;0.00;1.52;0.00;0.00;0.62;;;;;24.90;1.00;;;;;;2272454;61;1923;-84
2021/08/10 07:47:55;157162.00;0.52;272.15;1919.00;0.01;3.95;;;;;25.40;1.00;;;;;;2273260;61;1214;-85
2021/08/10 07:50:22;0.00;0.00;0.62;0.00;0.00;0.62;;;;;25.40;1.00;;;;;;2274229;61;1147;-85
2021/08/10 07:52:49;30478.00;0.10;53.41;0.00;0.00;0.62;;;;;25.50;1.00;;;;;;2273491;61;1292;-85
2021/08/10 07:55:16;49162.00;0.16;85.74;0.00;0.00;0.62;;;;;26.30;1.00;;;;;;2273611;61;1116;-87
2021/08/10 07:57:43;117354.00;0.39;203.52;0.00;0.00;0.62;;;;;27.00;1.00;;;;;;2274033;61;1290;-87
2021/08/10 08:00:11;42304.00;0.14;73.87;0.00;0.00;0.62;;;;;27.90;1.00;;;;;;2274152;61;1428;-87
2021/08/10 08:02:39;215843.00;0.72;373.19;54548.00;0.18;95.05;;;;;28.90;1.00;;;;;;2273997;61;1359;-87
2021/08/10 08:05:07;25544.00;0.09;44.87;0.00;0.00;0.62;;;;;29.50;1.00;;;;;;2273006;61;2000;-87
2021/08/10 08:07:34;64850.00;0.22;112.86;0.00;0.00;0.62;;;;;29.50;1.00;;;;;;2274780;61;1150;-87
2021/08/10 08:10:01;24074.00;0.08;42.32;0.00;0.00;0.62;;;;;29.60;1.00;;;;;;2273763;61;1151;-87
2021/08/10 08:12:28;21335.00;0.07;37.58;0.00;0.00;0.62;;;;;28.80;1.00;;;;;;2274529;61;1355;-85
2021/08/10 08:14:55;17007.00;0.06;30.09;0.00;0.00;0.62;;;;;28.00;1.00;;;;;;2276667;61;1180;-84
2021/08/10 08:17:22;8339.00;0.03;15.07;0.00;0.00;0.62;;;;;27.80;1.00;;;;;;2276625;61;1039;-86
2021/08/10 08:19:50;25211.00;0.08;44.29;0.00;0.00;0.62;;;;;27.60;1.00;;;;;;2276559;61;1141;-86
2021/08/10 08:22:17;0.00;0.00;0.62;0.00;0.00;0.62;;;;;27.70;1.00;;;;;;2276620;61;1382;-85
2021/08/10 08:24:44;0.00;0.00;0.62;0.00;0.00;0.62;;;;;27.80;1.00;;;;;;2276610;61;1993;-87
2021/08/10 08:27:11;0.00;0.00;0.62;0.00;0.00;0.62;;;;;28.10;1.00;;;;;;2276500;61;1137;-87
2021/08/10 08:29:38;7490.00;0.02;13.60;0.00;0.00;0.62;;;;;28.60;1.00;;;;;;2276602;61;1097;-87
2021/08/10 08:32:07;22447.00;0.07;39.51;0.00;0.00;0.62;;;;;28.70;1.00;;;;;;2276512;61;1086;-87
2021/08/10 08:34:34;330410.00;1.10;570.19;69749.00;0.23;121.33;;;;;28.50;1.00;;;;;;2276079;61;1304;-87
2021/08/10 08:37:03;0.00;0.00;0.62;0.00;0.00;0.62;;;;;28.20;1.00;;;;;;2276758;61;1151;-87
2021/08/10 08:39:30;0.00;0.00;0.62;0.00;0.00;0.62;;;;;28.30;1.00;;;;;;2276341;61;1121;-87
2021/08/10 08:42:01;79183.00;0.26;137.63;13725.00;0.05;24.40;;;;;28.60;1.00;;;;;;2276270;61;1147;-87
2021/08/10 08:44:34;43552.00;0.15;76.03;0.00;0.00;0.62;;;;;28.20;1.00;;;;;;2276119;61;1922;-87
2021/08/10 08:47:02;0.00;0.00;0.62;0.00;0.00;0.62;;;;;28.30;1.00;;;;;;2275669;61;1096;-87
2021/08/10 08:49:32;38588.00;0.13;67.45;0.00;0.00;0.62;;;;;28.00;1.00;;;;;;2276507;61;1086;-87
2021/08/10 08:52:00;46650.00;0.16;81.39;0.00;0.00;0.62;;;;;28.00;1.00;;;;;;2276194;61;1122;-87
2021/08/10 08:54:30;175096.00;0.58;303.04;0.00;0.00;0.62;;;;;28.30;1.00;;;;;;2268703;61;1374;-86
2021/08/10 08:56:57;3026.00;0.01;5.86;0.00;0.00;0.62;;;;;28.00;1.00;;;;;;2275743;61;1175;-87
2021/08/10 08:59:24;0.00;0.00;0.62;0.00;0.00;0.62;;;;;28.10;1.00;;;;;;2276178;61;1041;-87
2021/08/10 09:01:52;0.00;0.00;0.62;0.00;0.00;0.62;;;;;28.60;1.00;;;;;;2275757;61;1200;-87
2021/08/10 09:04:20;93098.00;0.31;161.66;0.00;0.00;0.62;;;;;28.70;1.00;;;;;;2275989;61;1339;-87
2021/08/10 09:06:48;139429.00;0.46;241.59;71089.00;0.24;123.64;;;;;28.60;1.00;;;;;;2276068;61;2014;-87
2021/08/10 09:09:23;37724.00;0.13;65.95;0.00;0.00;0.62;;;;;28.60;1.00;;;;;;2276176;61;1131;-87
2021/08/10 09:11:52;0.00;0.00;0.62;0.00;0.00;0.62;;;;;29.20;1.00;;;;;;2276292;61;1097;-87
2021/08/10 09:14:20;15502.00;0.05;27.48;0.00;0.00;0.62;;;;;29.50;1.00;;;;;;2276137;61;1288;-87
2021/08/10 09:17:08;0.00;0.00;0.62;0.00;0.00;0.62;;;;;29.30;1.00;;;;;;2275433;61;1093;-87
2021/08/10 09:19:44;21629.00;0.07;38.09;0.00;0.00;0.62;;;;;29.20;1.00;;;;;;2275968;61;1163;-87
2021/08/10 09:22:20;0.00;0.00;0.62;0.00;0.00;0.62;;;;;29.50;1.00;;;;;;2276145;61;1088;-87
2021/08/10 09:24:49;0.00;0.00;0.62;0.00;0.00;0.62;;;;;29.30;1.00;;;;;;2275928;61;1913;-87
2021/08/10 09:27:31;40333.00;0.13;70.46;0.00;0.00;0.62;;;;;29.20;1.00;;;;;;2276332;61;1214;-87
2021/08/10 09:29:59;62804.00;0.21;109.32;0.00;0.00;0.62;;;;;29.30;1.00;;;;;;2276121;61;1172;-87
2021/08/10 09:32:26;91564.00;0.31;159.01;0.00;0.00;0.62;;;;;29.30;1.00;;;;;;2276342;61;1380;-87
2021/08/10 09:35:13;0.00;0.00;0.62;0.00;0.00;0.62;;;;;29.40;1.00;;;;;;2276495;61;1132;-86
2021/08/10 09:37:40;67570.00;0.23;117.56;0.00;0.00;0.62;;;;;29.40;1.00;;;;;;2276578;61;1114;-86
2021/08/10 09:40:28;0.00;0.00;0.62;0.00;0.00;0.62;;;;;29.80;1.00;;;;;;2276576;61;1129;-84
2021/08/10 09:43:20;35689.00;0.12;62.43;0.00;0.00;0.62;;;;;29.80;1.00;;;;;;2276442;61;1442;-87
2021/08/10 09:45:48;0.00;0.00;0.62;0.00;0.00;0.62;;;;;30.10;1.00;;;;;;2276200;61;1992;-86
2021/08/10 09:48:16;0.00;0.00;0.62;0.00;0.00;0.62;;;;;30.60;1.00;;;;;;2275560;61;1108;-86
2021/08/10 09:50:44;0.00;0.00;0.62;0.00;0.00;0.62;;;;;30.40;1.00;;;;;;2276452;61;1164;-86
2021/08/10 09:53:17;0.00;0.00;0.62;0.00;0.00;0.62;;;;;30.80;1.00;;;;;;2276122;61;1391;-86
2021/08/10 09:55:54;55441.00;0.18;96.59;0.00;0.00;0.62;;;;;31.20;1.00;;;;;;2275959;61;1120;-86
2021/08/10 09:58:23;0.00;0.00;0.62;0.00;0.00;0.62;;;;;31.50;1.00;;;;;;2275882;61;1115;-87
2021/08/10 10:00:50;0.00;0.00;0.62;0.00;0.00;0.62;;;;;31.20;1.00;;;;;;2275871;61;1124;-88
2021/08/10 10:03:19;0.00;0.00;0.62;0.00;0.00;0.62;;;;;30.80;1.00;;;;;;2275855;61;1299;-87
2021/08/10 10:05:47;0.00;0.00;0.62;0.00;0.00;0.62;;;;;30.60;1.00;;;;;;2275205;61;2006;-86
2021/08/10 10:08:14;0.00;0.00;0.62;0.00;0.00;0.62;;;;;30.30;1.00;;;;;;2275626;61;1176;-87
2021/08/10 10:10:42;10682.00;0.04;19.13;0.00;0.00;0.62;;;;;30.00;1.00;;;;;;2274282;61;1164;-87
2021/08/10 10:13:12;0.00;0.00;0.62;0.00;0.00;0.62;;;;;30.20;1.00;;;;;;2274673;61;1288;-87
2021/08/10 10:15:41;626.00;0.00;1.71;0.00;0.00;0.62;;;;;30.60;1.00;;;;;;2274660;61;1029;-87
2021/08/10 10:18:09;0.00;0.00;0.62;0.00;0.00;0.62;;;;;30.80;1.00;;;;;;2274699;61;1153;-87
2021/08/10 10:20:40;23356.00;0.08;41.08;0.00;0.00;0.62;;;;;31.00;1.00;;;;;;2274577;61;1087;-86
2021/08/10 10:23:10;50233.00;0.17;87.59;0.00;0.00;0.62;;;;;31.00;1.00;;;;;;2274740;61;1396;-87